Time,TemperatureF,DewpointF,PressureIn,WindDirection,WindDirectionDegrees,WindSpeedMPH,WindSpeedGustMPH,Humidity,HourlyPrecipIn,Conditions,Clouds,dailyrainin,SoftwareType,DateUTC
2013-12-26 00:02:00,9.0,-1.0,-100.00,West,275,3.0,9.0,64,0.00,,,-99.99,,2013-12-26 06:02:00,
2013-12-26 00:42:00,9.0,0.0,-100.00,West,280,2.0,6.0,67,0.00,,,-99.99,,2013-12-26 06:42:00,
2013-12-26 00:52:00,9.0,0.0,-100.00,West,280,2.0,6.0,67,0.00,,,-99.99,,2013-12-26 06:52:00,
2013-12-26 01:01:00,9.0,0.0,-100.00,West,280,2.0,6.0,67,0.00,,,-99.99,,2013-12-26 07:01:00,
2013-12-26 01:11:00,9.0,0.0,-100.00,West,280,2.0,6.0,67,0.00,,,-99.99,,2013-12-26 07:11:00,
2013-12-26 01:42:00,8.0,-1.0,-100.00,NW,305,1.0,6.0,67,0.00,,,-99.99,,2013-12-26 07:42:00,
2013-12-26 01:52:00,8.0,-1.0,-100.00,NW,305,1.0,6.0,67,0.00,,,-99.99,,2013-12-26 07:52:00,
2013-12-26 02:02:00,8.0,-1.0,-100.00,NW,305,1.0,6.0,67,0.00,,,-99.99,,2013-12-26 08:02:00,
2013-12-26 02:11:00,8.0,-1.0,-100.00,NW,305,1.0,6.0,67,0.00,,,-99.99,,2013-12-26 08:11:00,
2013-12-26 02:12:00,8.0,-1.0,-100.00,WSW,255,4.0,9.0,67,0.00,,,-99.99,,2013-12-26 08:12:00,
2013-12-26 02:42:00,8.0,-1.0,-100.00,WSW,255,4.0,9.0,67,0.00,,,-99.99,,2013-12-26 08:42:00,
2013-12-26 02:53:00,8.0,-1.0,-100.00,WSW,255,4.0,9.0,67,0.00,,,-99.99,,2013-12-26 08:53:00,
2013-12-26 03:02:00,8.0,-1.0,-100.00,WSW,255,4.0,9.0,67,0.00,,,-99.99,,2013-12-26 09:02:00,
2013-12-26 03:43:00,6.0,-2.0,-100.00,WSW,250,1.0,2.0,67,0.00,,,-99.99,,2013-12-26 09:43:00,
2013-12-26 03:53:00,6.0,-2.0,-100.00,WSW,250,1.0,2.0,67,0.00,,,-99.99,,2013-12-26 09:53:00,
2013-12-26 04:03:00,6.0,-2.0,-100.00,WSW,250,1.0,2.0,67,0.00,,,-99.99,,2013-12-26 10:03:00,
2013-12-26 04:12:00,6.0,-2.0,-100.00,WSW,250,1.0,2.0,67,0.00,,,-99.99,,2013-12-26 10:12:00,
2013-12-26 04:43:00,6.0,-2.0,-100.00,West,265,2.0,4.0,70,0.00,,,-99.99,,2013-12-26 10:43:00,
2013-12-26 04:52:00,6.0,-2.0,-100.00,West,265,2.0,4.0,70,0.00,,,-99.99,,2013-12-26 10:52:00,
2013-12-26 05:02:00,6.0,-2.0,-100.00,West,265,2.0,4.0,70,0.00,,,-99.99,,2013-12-26 11:02:00,
2013-12-26 05:12:00,6.0,-2.0,-100.00,West,265,2.0,4.0,70,0.00,,,-99.99,,2013-12-26 11:12:00,
2013-12-26 05:43:00,5.0,-3.0,-100.00,West,270,2.0,4.0,70,0.00,,,-99.99,,2013-12-26 11:43:00,
2013-12-26 05:52:00,5.0,-3.0,-100.00,West,270,2.0,4.0,70,0.00,,,-99.99,,2013-12-26 11:52:00,
2013-12-26 06:02:00,5.0,-3.0,-100.00,West,270,2.0,4.0,70,0.00,,,-99.99,,2013-12-26 12:02:00,
2013-12-26 06:12:00,4.0,-3.0,-100.00,WSW,250,2.0,3.0,71,0.00,,,-99.99,,2013-12-26 12:12:00,
2013-12-26 06:42:00,4.0,-3.0,-100.00,WSW,250,2.0,3.0,71,0.00,,,-99.99,,2013-12-26 12:42:00,
2013-12-26 06:53:00,4.0,-3.0,-100.00,WSW,250,2.0,3.0,71,0.00,,,-99.99,,2013-12-26 12:53:00,
2013-12-26 07:02:00,4.0,-3.0,-100.00,WSW,250,2.0,3.0,71,0.00,,,-99.99,,2013-12-26 13:02:00,
2013-12-26 07:12:00,1.0,-5.0,-100.00,WNW,290,0.0,1.0,73,0.00,,,-99.99,,2013-12-26 13:12:00,
2013-12-26 07:42:00,1.0,-5.0,-100.00,WNW,290,0.0,1.0,73,0.00,,,-99.99,,2013-12-26 13:42:00,
2013-12-26 07:53:00,1.0,-5.0,-100.00,WNW,290,0.0,1.0,73,0.00,,,-99.99,,2013-12-26 13:53:00,
2013-12-26 08:01:00,1.0,-5.0,-100.00,WNW,290,0.0,1.0,73,0.00,,,-99.99,,2013-12-26 14:01:00,
2013-12-26 09:11:00,0.0,-6.0,-100.00,WNW,285,0.0,1.0,74,0.00,,,-99.99,,2013-12-26 15:11:00,
2013-12-26 09:43:00,0.0,-6.0,-100.00,WNW,285,0.0,1.0,74,0.00,,,-99.99,,2013-12-26 15:43:00,
2013-12-26 09:53:00,0.0,-6.0,-100.00,WNW,285,0.0,1.0,74,0.00,,,-99.99,,2013-12-26 15:53:00,
2013-12-26 10:03:00,0.0,-6.0,-100.00,WNW,285,0.0,1.0,74,0.00,,,-99.99,,2013-12-26 16:03:00,
2013-12-26 10:42:00,11.0,-2.0,-100.00,SE,130,1.0,2.0,54,0.00,,,-99.99,,2013-12-26 16:42:00,
2013-12-26 10:53:00,11.0,-2.0,-100.00,SE,130,1.0,2.0,54,0.00,,,-99.99,,2013-12-26 16:53:00,
2013-12-26 11:02:00,11.0,-2.0,-100.00,SE,130,1.0,2.0,54,0.00,,,-99.99,,2013-12-26 17:02:00,
2013-12-26 11:12:00,11.0,-2.0,-100.00,SE,130,1.0,2.0,54,0.00,,,-99.99,,2013-12-26 17:12:00,
2013-12-26 17:42:00,11.0,-1.0,-100.00,East,95,0.0,0.0,59,0.00,,,-99.99,,2013-12-26 23:42:00,
2013-12-26 17:53:00,11.0,-1.0,-100.00,East,95,0.0,0.0,59,0.00,,,-99.99,,2013-12-26 23:53:00,
2013-12-26 18:02:00,11.0,-1.0,-100.00,East,95,0.0,0.0,59,0.00,,,-99.99,,2013-12-27 00:02:00,
2013-12-26 18:12:00,11.0,-1.0,-100.00,East,95,0.0,0.0,59,0.00,,,-99.99,,2013-12-27 00:12:00,
2013-12-26 18:42:00,10.0,0.0,-100.00,WNW,285,0.0,0.0,64,0.00,,,-99.99,,2013-12-27 00:42:00,
2013-12-26 18:52:00,10.0,0.0,-100.00,WNW,285,0.0,0.0,64,0.00,,,-99.99,,2013-12-27 00:52:00,
2013-12-26 19:02:00,10.0,0.0,-100.00,WNW,285,0.0,0.0,64,0.00,,,-99.99,,2013-12-27 01:02:00,
2013-12-26 19:11:00,10.0,0.0,-100.00,WNW,285,0.0,0.0,64,0.00,,,-99.99,,2013-12-27 01:11:00,
2013-12-26 19:42:00,8.0,0.0,-100.00,WNW,285,1.0,1.0,70,0.00,,,-99.99,,2013-12-27 01:42:00,
2013-12-26 19:52:00,8.0,0.0,-100.00,WNW,285,1.0,1.0,70,0.00,,,-99.99,,2013-12-27 01:52:00,
2013-12-26 20:01:00,8.0,0.0,-100.00,WNW,285,1.0,1.0,70,0.00,,,-99.99,,2013-12-27 02:01:00,
2013-12-26 20:11:00,8.0,0.0,-100.00,WNW,285,1.0,1.0,70,0.00,,,-99.99,,2013-12-27 02:11:00,
2013-12-26 20:52:00,3.0,-3.0,-100.00,WNW,300,0.0,0.0,75,0.00,,,-99.99,,2013-12-27 02:52:00,
2013-12-26 21:02:00,3.0,-3.0,-100.00,WNW,300,0.0,0.0,75,0.00,,,-99.99,,2013-12-27 03:02:00,
2013-12-26 21:11:00,3.0,-3.0,-100.00,WNW,300,0.0,0.0,75,0.00,,,-99.99,,2013-12-27 03:11:00,
2013-12-26 22:12:00,-1.0,-7.0,-100.00,West,280,0.0,0.0,76,0.00,,,-99.99,,2013-12-27 04:12:00,